首页
METAR-TAF:

METAR-TAF

机场 :

卡昂, 法国

纬度: 49-11N, 经度: 000-27W, 海拔: 78米

当前天气观测

该预报发布于22分钟前的09:00 UTC
风速14节,风向北转东北,在东转东北之间变化
温度 6°C
湿度 52%
气压 1032 hPa
能见度10公里或以上
少量云层高于3800英尺
散云层高于4500英尺
阴天层高于5400英尺

METAR: LFRK 290900Z AUTO 03014KT 360V060 9999 FEW038 SCT045 OVC054 06/M03 Q1032 BECMG 04015G30KT

时间: 11:22 (09:22 UTC)

预报

该预报发布于1小时和22分钟前的08:00 UTC
预报有效从29日的 09点(UTC)到 29日的 18点(UTC)
风速15节,风向东北,有时为30节阵风
能见度10公里或以上
散云层高于3000英尺
短暂存在
从 29日的 12点(UTC)到 29日的 18点(UTC)
风速20节,风向东北,有时为40节阵风

TAF: LFRK 290800Z 2909/2918 04015G30KT 9999 SCT030 TEMPO 2912/2918 04020G40KT

超过4000个机场的气象观测和天气预报(METAR&TAF报告)。

可查询的气象台以黄色和红色小点在地图上表示。

将鼠标移到小点上方,可查看气象台名称。

然后点击查看天气观测和预报。

如需切换地图:点击带黑十字的绿色按钮放大地图;点击带横线的绿色按钮缩小地图;或者点击绿色箭头查看邻近地区的地图。


METAR-TAF: